sensor_id;sensor_type;location;lat;lon;timestamp;temperature;humidity
26821;DHT22;37186;51.394;5.454;2023-04-25T00:01:48;10.70;71.10
26821;DHT22;37186;51.394;5.454;2023-04-25T00:04:49;10.70;71.30
26821;DHT22;37186;51.394;5.454;2023-04-25T00:07:50;10.70;71.30
26821;DHT22;37186;51.394;5.454;2023-04-25T00:10:50;10.70;71.30
26821;DHT22;37186;51.394;5.454;2023-04-25T00:13:51;10.60;71.20
26821;DHT22;37186;51.394;5.454;2023-04-25T00:16:51;10.70;71.40
26821;DHT22;37186;51.394;5.454;2023-04-25T00:19:52;10.70;71.50
26821;DHT22;37186;51.394;5.454;2023-04-25T00:22:52;10.60;71.30
26821;DHT22;37186;51.394;5.454;2023-04-25T00:25:53;10.60;71.70
26821;DHT22;37186;51.394;5.454;2023-04-25T00:28:54;10.60;71.50
26821;DHT22;37186;51.394;5.454;2023-04-25T00:31:54;10.60;71.50
26821;DHT22;37186;51.394;5.454;2023-04-25T00:34:55;10.60;71.30
26821;DHT22;37186;51.394;5.454;2023-04-25T00:37:57;10.60;71.50
26821;DHT22;37186;51.394;5.454;2023-04-25T00:40:58;10.50;71.40
26821;DHT22;37186;51.394;5.454;2023-04-25T00:43:59;10.50;71.50
26821;DHT22;37186;51.394;5.454;2023-04-25T00:47:02;10.50;71.50
26821;DHT22;37186;51.394;5.454;2023-04-25T00:50:02;10.60;71.60
26821;DHT22;37186;51.394;5.454;2023-04-25T00:53:03;10.50;71.70
26821;DHT22;37186;51.394;5.454;2023-04-25T00:56:04;10.50;71.70
26821;DHT22;37186;51.394;5.454;2023-04-25T00:59:06;10.50;71.50
26821;DHT22;37186;51.394;5.454;2023-04-25T01:02:07;10.50;71.50
26821;DHT22;37186;51.394;5.454;2023-04-25T01:05:09;10.50;71.60
26821;DHT22;37186;51.394;5.454;2023-04-25T01:08:10;10.50;71.60
26821;DHT22;37186;51.394;5.454;2023-04-25T01:11:10;10.50;71.50
26821;DHT22;37186;51.394;5.454;2023-04-25T01:14:11;10.50;71.60
26821;DHT22;37186;51.394;5.454;2023-04-25T01:17:12;10.50;71.60
26821;DHT22;37186;51.394;5.454;2023-04-25T01:20:14;10.50;71.50
26821;DHT22;37186;51.394;5.454;2023-04-25T01:23:14;10.50;71.50
26821;DHT22;37186;51.394;5.454;2023-04-25T01:26:15;10.50;71.50
26821;DHT22;37186;51.394;5.454;2023-04-25T01:29:17;10.50;71.50
26821;DHT22;37186;51.394;5.454;2023-04-25T01:32:18;10.40;71.40
26821;DHT22;37186;51.394;5.454;2023-04-25T01:35:19;10.50;71.60
26821;DHT22;37186;51.394;5.454;2023-04-25T01:38:19;10.40;71.50
26821;DHT22;37186;51.394;5.454;2023-04-25T01:41:20;10.40;71.40
26821;DHT22;37186;51.394;5.454;2023-04-25T01:44:23;10.40;71.50
26821;DHT22;37186;51.394;5.454;2023-04-25T01:47:24;10.40;71.60
26821;DHT22;37186;51.394;5.454;2023-04-25T01:50:25;10.40;71.50
26821;DHT22;37186;51.394;5.454;2023-04-25T01:53:26;10.40;71.50
26821;DHT22;37186;51.394;5.454;2023-04-25T01:56:30;10.30;71.60
26821;DHT22;37186;51.394;5.454;2023-04-25T01:59:31;10.30;71.50
26821;DHT22;37186;51.394;5.454;2023-04-25T02:02:31;10.30;71.50
26821;DHT22;37186;51.394;5.454;2023-04-25T02:05:36;10.30;71.50
26821;DHT22;37186;51.394;5.454;2023-04-25T02:08:37;10.30;71.60
26821;DHT22;37186;51.394;5.454;2023-04-25T02:11:38;10.30;71.50
26821;DHT22;37186;51.394;5.454;2023-04-25T02:14:38;10.30;71.60
26821;DHT22;37186;51.394;5.454;2023-04-25T02:17:39;10.30;71.60
26821;DHT22;37186;51.394;5.454;2023-04-25T02:20:40;10.30;71.60
26821;DHT22;37186;51.394;5.454;2023-04-25T02:23:40;10.20;71.60
26821;DHT22;37186;51.394;5.454;2023-04-25T02:26:41;10.30;71.70
26821;DHT22;37186;51.394;5.454;2023-04-25T02:29:41;10.20;71.80
26821;DHT22;37186;51.394;5.454;2023-04-25T02:32:42;10.20;71.60
26821;DHT22;37186;51.394;5.454;2023-04-25T02:35:42;10.20;71.80
26821;DHT22;37186;51.394;5.454;2023-04-25T02:38:43;10.20;71.60
26821;DHT22;37186;51.394;5.454;2023-04-25T02:41:43;10.20;71.60
26821;DHT22;37186;51.394;5.454;2023-04-25T02:44:44;10.20;71.60
26821;DHT22;37186;51.394;5.454;2023-04-25T02:47:45;10.20;71.70
26821;DHT22;37186;51.394;5.454;2023-04-25T02:50:45;10.20;71.80
26821;DHT22;37186;51.394;5.454;2023-04-25T02:53:46;10.20;71.70
26821;DHT22;37186;51.394;5.454;2023-04-25T02:56:46;10.10;71.70
26821;DHT22;37186;51.394;5.454;2023-04-25T02:59:47;10.20;71.90
26821;DHT22;37186;51.394;5.454;2023-04-25T03:02:47;10.10;71.80
26821;DHT22;37186;51.394;5.454;2023-04-25T03:05:51;10.10;71.90
26821;DHT22;37186;51.394;5.454;2023-04-25T03:08:51;10.10;71.80
26821;DHT22;37186;51.394;5.454;2023-04-25T03:11:52;10.10;72.00
26821;DHT22;37186;51.394;5.454;2023-04-25T03:14:53;10.10;72.10
26821;DHT22;37186;51.394;5.454;2023-04-25T03:17:53;10.10;71.80
26821;DHT22;37186;51.394;5.454;2023-04-25T03:20:54;10.10;71.80
26821;DHT22;37186;51.394;5.454;2023-04-25T03:23:54;10.10;71.80
26821;DHT22;37186;51.394;5.454;2023-04-25T03:26:55;10.10;71.80
26821;DHT22;37186;51.394;5.454;2023-04-25T03:29:55;10.00;72.20
26821;DHT22;37186;51.394;5.454;2023-04-25T03:32:56;10.00;71.80
26821;DHT22;37186;51.394;5.454;2023-04-25T03:35:57;10.00;71.80
26821;DHT22;37186;51.394;5.454;2023-04-25T03:38:57;10.00;71.80
26821;DHT22;37186;51.394;5.454;2023-04-25T03:41:58;10.00;71.80
26821;DHT22;37186;51.394;5.454;2023-04-25T03:44:58;10.00;72.00
26821;DHT22;37186;51.394;5.454;2023-04-25T03:47:59;10.00;71.90
26821;DHT22;37186;51.394;5.454;2023-04-25T03:50:59;10.00;71.90
26821;DHT22;37186;51.394;5.454;2023-04-25T03:54:00;10.00;71.90
26821;DHT22;37186;51.394;5.454;2023-04-25T03:57:00;10.00;71.80
26821;DHT22;37186;51.394;5.454;2023-04-25T04:00:01;9.90;71.90
26821;DHT22;37186;51.394;5.454;2023-04-25T04:03:02;9.90;71.80
26821;DHT22;37186;51.394;5.454;2023-04-25T04:06:06;10.00;72.00
26821;DHT22;37186;51.394;5.454;2023-04-25T04:09:07;9.90;72.00
26821;DHT22;37186;51.394;5.454;2023-04-25T04:12:11;10.00;71.90
26821;DHT22;37186;51.394;5.454;2023-04-25T04:15:11;9.90;71.90
26821;DHT22;37186;51.394;5.454;2023-04-25T04:18:12;9.90;71.90
26821;DHT22;37186;51.394;5.454;2023-04-25T04:21:12;9.90;72.00
26821;DHT22;37186;51.394;5.454;2023-04-25T04:24:13;9.90;71.90
26821;DHT22;37186;51.394;5.454;2023-04-25T04:27:13;9.90;72.00
26821;DHT22;37186;51.394;5.454;2023-04-25T04:30:14;9.90;71.90
26821;DHT22;37186;51.394;5.454;2023-04-25T04:33:15;9.90;72.00
26821;DHT22;37186;51.394;5.454;2023-04-25T04:36:15;9.90;72.00
26821;DHT22;37186;51.394;5.454;2023-04-25T04:39:16;9.90;72.00
26821;DHT22;37186;51.394;5.454;2023-04-25T04:42:16;9.90;71.90
26821;DHT22;37186;51.394;5.454;2023-04-25T04:45:17;9.90;72.00
26821;DHT22;37186;51.394;5.454;2023-04-25T04:48:18;9.90;72.10
26821;DHT22;37186;51.394;5.454;2023-04-25T04:51:19;9.90;72.10
26821;DHT22;37186;51.394;5.454;2023-04-25T04:54:19;9.90;72.50
26821;DHT22;37186;51.394;5.454;2023-04-25T04:57:20;9.90;72.20
26821;DHT22;37186;51.394;5.454;2023-04-25T05:00:21;9.90;72.10
26821;DHT22;37186;51.394;5.454;2023-04-25T05:03:22;9.90;72.10
26821;DHT22;37186;51.394;5.454;2023-04-25T05:06:22;9.90;72.20
26821;DHT22;37186;51.394;5.454;2023-04-25T05:09:23;9.90;72.30
26821;DHT22;37186;51.394;5.454;2023-04-25T05:12:26;9.90;72.50
26821;DHT22;37186;51.394;5.454;2023-04-25T05:15:26;9.80;72.20
26821;DHT22;37186;51.394;5.454;2023-04-25T05:18:27;9.90;72.10
26821;DHT22;37186;51.394;5.454;2023-04-25T05:21:27;9.90;72.10
26821;DHT22;37186;51.394;5.454;2023-04-25T05:24:28;9.80;72.20
26821;DHT22;37186;51.394;5.454;2023-04-25T05:27:29;9.80;72.30
26821;DHT22;37186;51.394;5.454;2023-04-25T05:30:29;9.80;72.20
26821;DHT22;37186;51.394;5.454;2023-04-25T05:33:30;9.80;72.20
26821;DHT22;37186;51.394;5.454;2023-04-25T05:36:30;9.80;72.30
26821;DHT22;37186;51.394;5.454;2023-04-25T05:39:32;9.80;72.20
26821;DHT22;37186;51.394;5.454;2023-04-25T05:42:33;9.80;72.20
26821;DHT22;37186;51.394;5.454;2023-04-25T05:45:33;9.80;72.20
26821;DHT22;37186;51.394;5.454;2023-04-25T05:48:34;9.80;72.30
26821;DHT22;37186;51.394;5.454;2023-04-25T05:51:34;9.80;72.40
26821;DHT22;37186;51.394;5.454;2023-04-25T05:54:35;9.80;72.30
26821;DHT22;37186;51.394;5.454;2023-04-25T05:57:35;9.80;72.20
26821;DHT22;37186;51.394;5.454;2023-04-25T06:00:36;9.80;72.20
26821;DHT22;37186;51.394;5.454;2023-04-25T06:03:37;9.90;72.40
26821;DHT22;37186;51.394;5.454;2023-04-25T06:06:38;9.80;72.40
26821;DHT22;37186;51.394;5.454;2023-04-25T06:09:39;9.80;72.40
26821;DHT22;37186;51.394;5.454;2023-04-25T06:12:40;9.80;72.30
26821;DHT22;37186;51.394;5.454;2023-04-25T06:15:40;9.90;72.70
26821;DHT22;37186;51.394;5.454;2023-04-25T06:18:41;9.80;72.70
26821;DHT22;37186;51.394;5.454;2023-04-25T06:21:43;9.90;72.40
26821;DHT22;37186;51.394;5.454;2023-04-25T06:24:44;9.90;72.50
26821;DHT22;37186;51.394;5.454;2023-04-25T06:27:46;9.90;72.70
26821;DHT22;37186;51.394;5.454;2023-04-25T06:30:46;9.90;72.50
26821;DHT22;37186;51.394;5.454;2023-04-25T06:33:47;9.90;72.50
26821;DHT22;37186;51.394;5.454;2023-04-25T06:36:48;9.90;72.70
26821;DHT22;37186;51.394;5.454;2023-04-25T06:39:49;9.90;72.50
26821;DHT22;37186;51.394;5.454;2023-04-25T06:42:49;9.90;72.50
26821;DHT22;37186;51.394;5.454;2023-04-25T06:45:50;9.90;72.70
26821;DHT22;37186;51.394;5.454;2023-04-25T06:48:50;9.90;73.70
26821;DHT22;37186;51.394;5.454;2023-04-25T06:51:51;9.90;72.70
26821;DHT22;37186;51.394;5.454;2023-04-25T06:54:51;9.90;72.70
26821;DHT22;37186;51.394;5.454;2023-04-25T06:57:52;10.00;72.90
26821;DHT22;37186;51.394;5.454;2023-04-25T07:00:52;10.00;72.90
26821;DHT22;37186;51.394;5.454;2023-04-25T07:03:53;10.00;72.70
26821;DHT22;37186;51.394;5.454;2023-04-25T07:06:53;10.00;72.80
26821;DHT22;37186;51.394;5.454;2023-04-25T07:09:55;10.10;72.70
26821;DHT22;37186;51.394;5.454;2023-04-25T07:12:55;10.10;72.70
26821;DHT22;37186;51.394;5.454;2023-04-25T07:15:56;10.10;72.70
26821;DHT22;37186;51.394;5.454;2023-04-25T07:18:57;10.10;72.60
26821;DHT22;37186;51.394;5.454;2023-04-25T07:21:57;10.10;72.40
26821;DHT22;37186;51.394;5.454;2023-04-25T07:24:58;10.20;72.40
26821;DHT22;37186;51.394;5.454;2023-04-25T07:27:58;10.20;72.40
26821;DHT22;37186;51.394;5.454;2023-04-25T07:30:59;10.30;72.00
26821;DHT22;37186;51.394;5.454;2023-04-25T07:33:59;10.20;71.90
26821;DHT22;37186;51.394;5.454;2023-04-25T07:37:00;10.30;72.20
26821;DHT22;37186;51.394;5.454;2023-04-25T07:40:02;10.30;71.80
26821;DHT22;37186;51.394;5.454;2023-04-25T07:43:04;10.30;71.70
26821;DHT22;37186;51.394;5.454;2023-04-25T07:46:04;10.30;71.80
26821;DHT22;37186;51.394;5.454;2023-04-25T07:49:05;10.30;71.90
26821;DHT22;37186;51.394;5.454;2023-04-25T07:52:05;10.40;71.60
26821;DHT22;37186;51.394;5.454;2023-04-25T07:55:06;10.40;71.00
26821;DHT22;37186;51.394;5.454;2023-04-25T07:58:07;10.40;70.60
26821;DHT22;37186;51.394;5.454;2023-04-25T08:01:07;10.40;70.80
26821;DHT22;37186;51.394;5.454;2023-04-25T08:04:08;10.40;71.10
26821;DHT22;37186;51.394;5.454;2023-04-25T08:07:08;10.50;71.30
26821;DHT22;37186;51.394;5.454;2023-04-25T08:10:10;10.50;71.60
26821;DHT22;37186;51.394;5.454;2023-04-25T08:13:10;10.50;71.70
26821;DHT22;37186;51.394;5.454;2023-04-25T08:16:11;10.50;72.20
26821;DHT22;37186;51.394;5.454;2023-04-25T08:19:11;10.60;71.10
26821;DHT22;37186;51.394;5.454;2023-04-25T08:22:12;10.70;71.30
26821;DHT22;37186;51.394;5.454;2023-04-25T08:25:13;10.70;71.00
26821;DHT22;37186;51.394;5.454;2023-04-25T08:28:14;10.70;71.10
26821;DHT22;37186;51.394;5.454;2023-04-25T08:31:15;10.70;71.10
26821;DHT22;37186;51.394;5.454;2023-04-25T08:34:16;10.80;71.20
26821;DHT22;37186;51.394;5.454;2023-04-25T08:37:16;10.80;71.00
26821;DHT22;37186;51.394;5.454;2023-04-25T08:40:22;10.80;71.10
26821;DHT22;37186;51.394;5.454;2023-04-25T08:43:29;10.80;71.20
26821;DHT22;37186;51.394;5.454;2023-04-25T08:46:31;10.80;71.00
26821;DHT22;37186;51.394;5.454;2023-04-25T08:49:33;10.90;71.10
26821;DHT22;37186;51.394;5.454;2023-04-25T08:52:43;10.90;71.00
26821;DHT22;37186;51.394;5.454;2023-04-25T08:55:45;10.90;71.00
26821;DHT22;37186;51.394;5.454;2023-04-25T08:58:48;10.90;70.90
26821;DHT22;37186;51.394;5.454;2023-04-25T09:01:50;11.00;71.10
26821;DHT22;37186;51.394;5.454;2023-04-25T09:04:52;10.90;71.00
26821;DHT22;37186;51.394;5.454;2023-04-25T09:07:54;11.00;71.00
26821;DHT22;37186;51.394;5.454;2023-04-25T09:10:56;11.00;71.00
26821;DHT22;37186;51.394;5.454;2023-04-25T09:14:33;11.00;70.50
26821;DHT22;37186;51.394;5.454;2023-04-25T09:17:33;11.00;70.50
26821;DHT22;37186;51.394;5.454;2023-04-25T09:20:41;11.10;70.00
26821;DHT22;37186;51.394;5.454;2023-04-25T09:23:47;11.10;70.60
26821;DHT22;37186;51.394;5.454;2023-04-25T09:26:48;11.10;70.70
26821;DHT22;37186;51.394;5.454;2023-04-25T09:29:57;11.10;70.90
26821;DHT22;37186;51.394;5.454;2023-04-25T09:33:07;11.20;70.80
26821;DHT22;37186;51.394;5.454;2023-04-25T09:36:09;11.20;70.60
26821;DHT22;37186;51.394;5.454;2023-04-25T09:39:12;11.20;70.50
26821;DHT22;37186;51.394;5.454;2023-04-25T09:42:16;11.30;70.50
26821;DHT22;37186;51.394;5.454;2023-04-25T09:45:17;11.30;70.20
26821;DHT22;37186;51.394;5.454;2023-04-25T09:48:19;11.40;70.50
26821;DHT22;37186;51.394;5.454;2023-04-25T09:51:25;11.40;70.10
26821;DHT22;37186;51.394;5.454;2023-04-25T09:54:26;11.50;69.70
26821;DHT22;37186;51.394;5.454;2023-04-25T09:57:27;11.50;69.40
26821;DHT22;37186;51.394;5.454;2023-04-25T10:00:28;11.50;69.60
26821;DHT22;37186;51.394;5.454;2023-04-25T10:03:33;11.60;70.00
26821;DHT22;37186;51.394;5.454;2023-04-25T10:06:35;11.60;70.10
26821;DHT22;37186;51.394;5.454;2023-04-25T10:09:39;11.60;69.90
26821;DHT22;37186;51.394;5.454;2023-04-25T10:12:40;11.70;69.90
26821;DHT22;37186;51.394;5.454;2023-04-25T10:15:43;11.70;70.10
26821;DHT22;37186;51.394;5.454;2023-04-25T10:18:43;11.70;69.40
26821;DHT22;37186;51.394;5.454;2023-04-25T10:21:51;11.70;68.90
26821;DHT22;37186;51.394;5.454;2023-04-25T10:24:52;11.70;68.80
26821;DHT22;37186;51.394;5.454;2023-04-25T10:27:53;11.80;68.90
26821;DHT22;37186;51.394;5.454;2023-04-25T10:31:04;11.80;69.60
26821;DHT22;37186;51.394;5.454;2023-04-25T10:34:05;11.90;68.20
26821;DHT22;37186;51.394;5.454;2023-04-25T10:37:08;11.90;68.70
26821;DHT22;37186;51.394;5.454;2023-04-25T10:40:10;12.00;69.30
26821;DHT22;37186;51.394;5.454;2023-04-25T10:46:39;12.10;68.90
26821;DHT22;37186;51.394;5.454;2023-04-25T10:49:43;12.10;68.20
26821;DHT22;37186;51.394;5.454;2023-04-25T10:52:44;12.20;68.50
26821;DHT22;37186;51.394;5.454;2023-04-25T10:55:51;12.20;68.80
26821;DHT22;37186;51.394;5.454;2023-04-25T10:58:52;12.20;68.70
26821;DHT22;37186;51.394;5.454;2023-04-25T11:02:11;12.20;67.80
26821;DHT22;37186;51.394;5.454;2023-04-25T11:05:34;12.30;67.60
26821;DHT22;37186;51.394;5.454;2023-04-25T11:08:48;12.20;67.80
26821;DHT22;37186;51.394;5.454;2023-04-25T11:11:57;12.20;67.80
26821;DHT22;37186;51.394;5.454;2023-04-25T11:15:00;12.20;67.20
26821;DHT22;37186;51.394;5.454;2023-04-25T11:18:01;12.20;66.30
26821;DHT22;37186;51.394;5.454;2023-04-25T11:21:02;12.20;67.40
26821;DHT22;37186;51.394;5.454;2023-04-25T11:24:04;12.20;66.90
26821;DHT22;37186;51.394;5.454;2023-04-25T11:27:05;12.10;66.90
26821;DHT22;37186;51.394;5.454;2023-04-25T11:30:15;12.20;67.40
26821;DHT22;37186;51.394;5.454;2023-04-25T11:33:23;12.20;67.20
26821;DHT22;37186;51.394;5.454;2023-04-25T11:36:24;12.20;66.70
26821;DHT22;37186;51.394;5.454;2023-04-25T11:39:27;12.20;67.30
26821;DHT22;37186;51.394;5.454;2023-04-25T11:42:27;12.30;67.20
26821;DHT22;37186;51.394;5.454;2023-04-25T11:45:28;12.30;67.10
26821;DHT22;37186;51.394;5.454;2023-04-25T11:48:40;12.30;67.10
26821;DHT22;37186;51.394;5.454;2023-04-25T11:51:44;12.30;67.40
26821;DHT22;37186;51.394;5.454;2023-04-25T11:54:45;12.30;67.50
26821;DHT22;37186;51.394;5.454;2023-04-25T11:57:48;12.30;67.20
26821;DHT22;37186;51.394;5.454;2023-04-25T12:00:49;12.30;67.40
26821;DHT22;37186;51.394;5.454;2023-04-25T12:03:50;12.30;67.30
26821;DHT22;37186;51.394;5.454;2023-04-25T12:06:55;12.40;67.10
26821;DHT22;37186;51.394;5.454;2023-04-25T12:09:55;12.30;67.60
26821;DHT22;37186;51.394;5.454;2023-04-25T12:12:56;12.40;67.70
26821;DHT22;37186;51.394;5.454;2023-04-25T12:15:57;12.40;67.30
26821;DHT22;37186;51.394;5.454;2023-04-25T12:18:57;12.50;67.90
26821;DHT22;37186;51.394;5.454;2023-04-25T12:22:01;12.50;67.10
26821;DHT22;37186;51.394;5.454;2023-04-25T12:25:04;12.60;66.10
26821;DHT22;37186;51.394;5.454;2023-04-25T12:31:16;12.60;66.90
26821;DHT22;37186;51.394;5.454;2023-04-25T12:34:17;12.60;66.90
26821;DHT22;37186;51.394;5.454;2023-04-25T12:37:17;12.60;66.70
26821;DHT22;37186;51.394;5.454;2023-04-25T12:40:18;12.60;66.40
26821;DHT22;37186;51.394;5.454;2023-04-25T12:43:19;12.60;66.40
26821;DHT22;37186;51.394;5.454;2023-04-25T12:46:19;12.60;66.60
26821;DHT22;37186;51.394;5.454;2023-04-25T12:49:20;12.70;67.00
26821;DHT22;37186;51.394;5.454;2023-04-25T12:52:20;12.70;67.10
26821;DHT22;37186;51.394;5.454;2023-04-25T12:55:21;12.80;67.30
26821;DHT22;37186;51.394;5.454;2023-04-25T12:58:22;12.80;66.50
26821;DHT22;37186;51.394;5.454;2023-04-25T13:01:24;12.80;66.60
26821;DHT22;37186;51.394;5.454;2023-04-25T13:04:26;12.80;66.60
26821;DHT22;37186;51.394;5.454;2023-04-25T13:07:26;12.90;65.30
26821;DHT22;37186;51.394;5.454;2023-04-25T13:10:27;12.90;65.50
26821;DHT22;37186;51.394;5.454;2023-04-25T13:13:27;12.90;65.80
26821;DHT22;37186;51.394;5.454;2023-04-25T13:16:28;12.90;65.70
26821;DHT22;37186;51.394;5.454;2023-04-25T13:19:29;12.90;65.00
26821;DHT22;37186;51.394;5.454;2023-04-25T13:22:29;12.90;65.40
26821;DHT22;37186;51.394;5.454;2023-04-25T13:25:30;12.80;65.10
26821;DHT22;37186;51.394;5.454;2023-04-25T13:28:30;12.80;65.20
26821;DHT22;37186;51.394;5.454;2023-04-25T13:31:31;12.80;64.70
26821;DHT22;37186;51.394;5.454;2023-04-25T13:34:32;12.70;64.00
26821;DHT22;37186;51.394;5.454;2023-04-25T13:37:32;12.80;62.60
26821;DHT22;37186;51.394;5.454;2023-04-25T13:40:33;12.70;63.20
26821;DHT22;37186;51.394;5.454;2023-04-25T13:43:33;12.70;64.10
26821;DHT22;37186;51.394;5.454;2023-04-25T13:46:35;12.70;64.50
26821;DHT22;37186;51.394;5.454;2023-04-25T13:49:37;12.70;64.80
26821;DHT22;37186;51.394;5.454;2023-04-25T13:52:37;12.80;64.80
26821;DHT22;37186;51.394;5.454;2023-04-25T13:55:38;12.80;65.10
26821;DHT22;37186;51.394;5.454;2023-04-25T13:58:39;12.80;64.00
26821;DHT22;37186;51.394;5.454;2023-04-25T14:01:39;12.90;64.70
26821;DHT22;37186;51.394;5.454;2023-04-25T14:04:41;13.00;64.90
26821;DHT22;37186;51.394;5.454;2023-04-25T14:07:41;13.10;64.50
26821;DHT22;37186;51.394;5.454;2023-04-25T14:10:42;13.10;65.90
26821;DHT22;37186;51.394;5.454;2023-04-25T14:13:42;13.20;65.70
26821;DHT22;37186;51.394;5.454;2023-04-25T14:16:43;13.20;65.00
26821;DHT22;37186;51.394;5.454;2023-04-25T14:19:43;13.30;65.00
26821;DHT22;37186;51.394;5.454;2023-04-25T14:22:45;13.40;65.50
26821;DHT22;37186;51.394;5.454;2023-04-25T14:25:46;13.50;65.10
26821;DHT22;37186;51.394;5.454;2023-04-25T14:28:46;13.50;64.90
26821;DHT22;37186;51.394;5.454;2023-04-25T14:31:47;13.60;64.20
26821;DHT22;37186;51.394;5.454;2023-04-25T14:34:47;13.70;64.40
26821;DHT22;37186;51.394;5.454;2023-04-25T14:37:48;13.70;64.70
26821;DHT22;37186;51.394;5.454;2023-04-25T14:40:49;13.80;64.00
26821;DHT22;37186;51.394;5.454;2023-04-25T14:43:50;13.80;63.30
26821;DHT22;37186;51.394;5.454;2023-04-25T14:46:51;13.90;64.20
26821;DHT22;37186;51.394;5.454;2023-04-25T14:49:51;13.80;64.20
26821;DHT22;37186;51.394;5.454;2023-04-25T14:52:54;13.80;64.20
26821;DHT22;37186;51.394;5.454;2023-04-25T14:55:58;13.80;64.20
26821;DHT22;37186;51.394;5.454;2023-04-25T14:58:59;13.80;64.60
26821;DHT22;37186;51.394;5.454;2023-04-25T15:02:00;13.80;64.70
26821;DHT22;37186;51.394;5.454;2023-04-25T15:05:00;13.80;64.70
26821;DHT22;37186;51.394;5.454;2023-04-25T15:08:02;13.80;64.70
26821;DHT22;37186;51.394;5.454;2023-04-25T15:11:02;13.80;64.60
26821;DHT22;37186;51.394;5.454;2023-04-25T15:14:03;13.80;64.90
26821;DHT22;37186;51.394;5.454;2023-04-25T15:17:04;13.80;64.40
26821;DHT22;37186;51.394;5.454;2023-04-25T15:20:11;13.90;65.20
26821;DHT22;37186;51.394;5.454;2023-04-25T15:23:13;13.90;64.40
26821;DHT22;37186;51.394;5.454;2023-04-25T15:26:13;14.00;65.00
26821;DHT22;37186;51.394;5.454;2023-04-25T15:29:14;14.10;64.70
26821;DHT22;37186;51.394;5.454;2023-04-25T15:32:15;14.20;64.10
26821;DHT22;37186;51.394;5.454;2023-04-25T15:35:16;14.30;64.50
26821;DHT22;37186;51.394;5.454;2023-04-25T15:38:16;14.40;64.80
26821;DHT22;37186;51.394;5.454;2023-04-25T15:41:17;14.50;64.10
26821;DHT22;37186;51.394;5.454;2023-04-25T15:44:18;14.50;63.90
26821;DHT22;37186;51.394;5.454;2023-04-25T15:47:18;14.60;62.80
26821;DHT22;37186;51.394;5.454;2023-04-25T15:50:19;14.60;62.70
26821;DHT22;37186;51.394;5.454;2023-04-25T15:53:19;14.60;62.70
26821;DHT22;37186;51.394;5.454;2023-04-25T15:56:20;14.60;62.30
26821;DHT22;37186;51.394;5.454;2023-04-25T15:59:21;14.60;61.90
26821;DHT22;37186;51.394;5.454;2023-04-25T16:02:22;14.50;62.70
26821;DHT22;37186;51.394;5.454;2023-04-25T16:05:22;14.50;63.00
26821;DHT22;37186;51.394;5.454;2023-04-25T16:08:23;14.50;62.70
26821;DHT22;37186;51.394;5.454;2023-04-25T16:11:24;14.60;63.70
26821;DHT22;37186;51.394;5.454;2023-04-25T16:14:25;14.70;62.50
26821;DHT22;37186;51.394;5.454;2023-04-25T16:17:26;14.90;63.20
26821;DHT22;37186;51.394;5.454;2023-04-25T16:20:28;15.00;64.20
26821;DHT22;37186;51.394;5.454;2023-04-25T16:23:29;15.10;64.60
26821;DHT22;37186;51.394;5.454;2023-04-25T16:26:30;15.20;62.80
26821;DHT22;37186;51.394;5.454;2023-04-25T16:29:31;15.20;62.80
26821;DHT22;37186;51.394;5.454;2023-04-25T16:32:31;15.30;61.30
26821;DHT22;37186;51.394;5.454;2023-04-25T16:35:32;15.30;62.80
26821;DHT22;37186;51.394;5.454;2023-04-25T16:38:32;15.30;61.30
26821;DHT22;37186;51.394;5.454;2023-04-25T16:41:33;15.30;60.20
26821;DHT22;37186;51.394;5.454;2023-04-25T16:44:34;15.30;60.40
26821;DHT22;37186;51.394;5.454;2023-04-25T16:47:34;15.30;60.80
26821;DHT22;37186;51.394;5.454;2023-04-25T16:50:35;15.30;60.10
26821;DHT22;37186;51.394;5.454;2023-04-25T16:53:36;15.20;60.60
26821;DHT22;37186;51.394;5.454;2023-04-25T16:56:36;15.20;61.30
26821;DHT22;37186;51.394;5.454;2023-04-25T16:59:37;15.10;59.60
26821;DHT22;37186;51.394;5.454;2023-04-25T17:02:38;15.00;58.90
26821;DHT22;37186;51.394;5.454;2023-04-25T17:05:38;15.00;60.60
26821;DHT22;37186;51.394;5.454;2023-04-25T17:08:40;15.00;60.80
26821;DHT22;37186;51.394;5.454;2023-04-25T17:11:40;15.10;60.60
26821;DHT22;37186;51.394;5.454;2023-04-25T17:14:41;15.10;61.30
26821;DHT22;37186;51.394;5.454;2023-04-25T17:17:42;15.10;60.30
26821;DHT22;37186;51.394;5.454;2023-04-25T17:20:42;15.00;61.10
26821;DHT22;37186;51.394;5.454;2023-04-25T17:23:43;15.00;61.00
26821;DHT22;37186;51.394;5.454;2023-04-25T17:26:44;15.00;61.50
26821;DHT22;37186;51.394;5.454;2023-04-25T17:29:45;15.10;60.30
26821;DHT22;37186;51.394;5.454;2023-04-25T17:32:45;15.10;61.00
26821;DHT22;37186;51.394;5.454;2023-04-25T17:35:46;15.10;59.60
26821;DHT22;37186;51.394;5.454;2023-04-25T17:38:47;15.10;60.70
26821;DHT22;37186;51.394;5.454;2023-04-25T17:41:47;15.10;60.40
26821;DHT22;37186;51.394;5.454;2023-04-25T17:44:48;15.10;60.90
26821;DHT22;37186;51.394;5.454;2023-04-25T17:47:48;15.20;60.30
26821;DHT22;37186;51.394;5.454;2023-04-25T17:50:49;15.20;61.10
26821;DHT22;37186;51.394;5.454;2023-04-25T17:53:50;15.20;61.30
26821;DHT22;37186;51.394;5.454;2023-04-25T17:56:51;15.20;59.70
26821;DHT22;37186;51.394;5.454;2023-04-25T17:59:52;15.20;59.40
26821;DHT22;37186;51.394;5.454;2023-04-25T18:02:55;15.10;59.90
26821;DHT22;37186;51.394;5.454;2023-04-25T18:05:55;15.00;58.60
26821;DHT22;37186;51.394;5.454;2023-04-25T18:08:56;15.00;59.20
26821;DHT22;37186;51.394;5.454;2023-04-25T18:11:57;14.90;58.80
26821;DHT22;37186;51.394;5.454;2023-04-25T18:14:58;14.70;58.80
26821;DHT22;37186;51.394;5.454;2023-04-25T18:17:58;14.70;59.00
26821;DHT22;37186;51.394;5.454;2023-04-25T18:21:02;14.60;58.70
26821;DHT22;37186;51.394;5.454;2023-04-25T18:24:05;14.50;59.00
26821;DHT22;37186;51.394;5.454;2023-04-25T18:27:05;14.40;59.10
26821;DHT22;37186;51.394;5.454;2023-04-25T18:30:07;14.30;59.60
26821;DHT22;37186;51.394;5.454;2023-04-25T18:33:08;14.20;59.30
26821;DHT22;37186;51.394;5.454;2023-04-25T18:36:09;14.20;60.00
26821;DHT22;37186;51.394;5.454;2023-04-25T18:39:09;14.10;59.70
26821;DHT22;37186;51.394;5.454;2023-04-25T18:42:10;14.00;59.00
26821;DHT22;37186;51.394;5.454;2023-04-25T18:45:11;14.00;59.00
26821;DHT22;37186;51.394;5.454;2023-04-25T18:48:11;13.80;59.50
26821;DHT22;37186;51.394;5.454;2023-04-25T18:51:12;13.80;60.00
26821;DHT22;37186;51.394;5.454;2023-04-25T18:54:13;13.70;60.00
26821;DHT22;37186;51.394;5.454;2023-04-25T18:57:14;13.60;60.00
26821;DHT22;37186;51.394;5.454;2023-04-25T19:00:17;13.60;60.40
26821;DHT22;37186;51.394;5.454;2023-04-25T19:03:17;13.50;60.30
26821;DHT22;37186;51.394;5.454;2023-04-25T19:06:18;13.40;60.30
26821;DHT22;37186;51.394;5.454;2023-04-25T19:09:18;13.30;60.50
26821;DHT22;37186;51.394;5.454;2023-04-25T19:12:19;13.30;60.70
26821;DHT22;37186;51.394;5.454;2023-04-25T19:15:21;13.20;60.90